sensor_id;sensor_type;location;lat;lon;timestamp;temperature;humidity
67502;SHT30;54349;52.528;19.760;2023-07-13T00:01:15;18.69;58.46
67502;SHT30;54349;52.528;19.760;2023-07-13T00:03:45;18.68;58.41
67502;SHT30;54349;52.528;19.760;2023-07-13T00:06:13;18.69;58.42
67502;SHT30;54349;52.528;19.760;2023-07-13T00:08:42;18.69;58.41
67502;SHT30;54349;52.528;19.760;2023-07-13T00:11:11;18.69;58.40
67502;SHT30;54349;52.528;19.760;2023-07-13T00:13:40;18.70;58.32
67502;SHT30;54349;52.528;19.760;2023-07-13T00:16:11;18.70;58.25
67502;SHT30;54349;52.528;19.760;2023-07-13T00:18:42;18.71;58.26
67502;SHT30;54349;52.528;19.760;2023-07-13T00:21:10;18.72;58.20
67502;SHT30;54349;52.528;19.760;2023-07-13T00:23:40;18.75;58.19
67502;SHT30;54349;52.528;19.760;2023-07-13T00:26:10;18.75;58.15
67502;SHT30;54349;52.528;19.760;2023-07-13T00:28:40;18.75;58.11
67502;SHT30;54349;52.528;19.760;2023-07-13T00:31:10;18.76;58.09
67502;SHT30;54349;52.528;19.760;2023-07-13T00:33:41;18.76;58.07
67502;SHT30;54349;52.528;19.760;2023-07-13T00:36:10;18.76;58.01
67502;SHT30;54349;52.528;19.760;2023-07-13T00:38:39;18.78;57.96
67502;SHT30;54349;52.528;19.760;2023-07-13T00:41:09;18.78;57.85
67502;SHT30;54349;52.528;19.760;2023-07-13T00:43:38;18.79;57.85
67502;SHT30;54349;52.528;19.760;2023-07-13T00:46:21;18.77;57.92
67502;SHT30;54349;52.528;19.760;2023-07-13T00:48:54;18.77;58.07
67502;SHT30;54349;52.528;19.760;2023-07-13T00:51:34;18.73;58.02
67502;SHT30;54349;52.528;19.760;2023-07-13T00:54:38;18.60;57.84
67502;SHT30;54349;52.528;19.760;2023-07-13T00:57:11;18.44;57.79
67502;SHT30;54349;52.528;19.760;2023-07-13T00:59:50;18.32;57.86
67502;SHT30;54349;52.528;19.760;2023-07-13T01:02:27;18.23;57.87
67502;SHT30;54349;52.528;19.760;2023-07-13T01:04:56;18.15;57.77
67502;SHT30;54349;52.528;19.760;2023-07-13T01:07:25;18.09;57.72
67502;SHT30;54349;52.528;19.760;2023-07-13T01:09:53;18.03;57.70
67502;SHT30;54349;52.528;19.760;2023-07-13T01:12:21;17.95;57.66
67502;SHT30;54349;52.528;19.760;2023-07-13T01:14:56;17.86;57.73
67502;SHT30;54349;52.528;19.760;2023-07-13T01:17:28;17.79;57.69
67502;SHT30;54349;52.528;19.760;2023-07-13T01:19:57;17.75;57.69
67502;SHT30;54349;52.528;19.760;2023-07-13T01:22:27;17.70;57.72
67502;SHT30;54349;52.528;19.760;2023-07-13T01:24:57;17.64;57.77
67502;SHT30;54349;52.528;19.760;2023-07-13T01:27:26;17.58;57.79
67502;SHT30;54349;52.528;19.760;2023-07-13T01:29:55;17.53;57.82
67502;SHT30;54349;52.528;19.760;2023-07-13T01:32:30;17.50;57.90
67502;SHT30;54349;52.528;19.760;2023-07-13T01:35:01;17.44;57.92
67502;SHT30;54349;52.528;19.760;2023-07-13T01:37:29;17.39;57.89
67502;SHT30;54349;52.528;19.760;2023-07-13T01:40:02;17.32;57.86
67502;SHT30;54349;52.528;19.760;2023-07-13T01:42:32;17.27;57.89
67502;SHT30;54349;52.528;19.760;2023-07-13T01:45:09;17.22;57.92
67502;SHT30;54349;52.528;19.760;2023-07-13T01:47:38;17.18;57.97
67502;SHT30;54349;52.528;19.760;2023-07-13T01:50:07;17.13;58.06
67502;SHT30;54349;52.528;19.760;2023-07-13T01:52:43;17.13;58.45
67502;SHT30;54349;52.528;19.760;2023-07-13T01:55:12;17.60;59.07
67502;SHT30;54349;52.528;19.760;2023-07-13T01:57:41;18.35;58.05
67502;SHT30;54349;52.528;19.760;2023-07-13T02:00:11;19.02;57.11
67502;SHT30;54349;52.528;19.760;2023-07-13T02:02:47;19.56;56.21
67502;SHT30;54349;52.528;19.760;2023-07-13T02:05:17;19.98;55.53
67502;SHT30;54349;52.528;19.760;2023-07-13T02:07:47;20.25;55.66
67502;SHT30;54349;52.528;19.760;2023-07-13T02:10:15;19.80;56.27
67502;SHT30;54349;52.528;19.760;2023-07-13T02:12:45;19.27;57.29
67502;SHT30;54349;52.528;19.760;2023-07-13T02:15:13;18.92;57.56
67502;SHT30;54349;52.528;19.760;2023-07-13T02:17:42;18.61;57.54
67502;SHT30;54349;52.528;19.760;2023-07-13T02:20:11;18.34;58.04
67502;SHT30;54349;52.528;19.760;2023-07-13T02:22:40;18.16;58.35
67502;SHT30;54349;52.528;19.760;2023-07-13T02:25:08;18.01;58.43
67502;SHT30;54349;52.528;19.760;2023-07-13T02:27:37;17.87;58.54
67502;SHT30;54349;52.528;19.760;2023-07-13T02:30:05;17.76;58.66
67502;SHT30;54349;52.528;19.760;2023-07-13T02:32:35;17.67;58.70
67502;SHT30;54349;52.528;19.760;2023-07-13T02:35:04;17.58;58.71
67502;SHT30;54349;52.528;19.760;2023-07-13T02:37:34;17.70;59.54
67502;SHT30;54349;52.528;19.760;2023-07-13T02:40:02;18.33;58.94
67502;SHT30;54349;52.528;19.760;2023-07-13T02:42:36;18.97;57.97
67502;SHT30;54349;52.528;19.760;2023-07-13T02:45:07;19.50;57.08
67502;SHT30;54349;52.528;19.760;2023-07-13T02:47:37;19.92;56.36
67502;SHT30;54349;52.528;19.760;2023-07-13T02:50:09;20.14;56.45
67502;SHT30;54349;52.528;19.760;2023-07-13T02:52:38;19.69;56.47
67502;SHT30;54349;52.528;19.760;2023-07-13T02:55:07;19.18;57.50
67502;SHT30;54349;52.528;19.760;2023-07-13T02:57:37;18.81;57.74
67502;SHT30;54349;52.528;19.760;2023-07-13T03:00:06;18.48;57.94
67502;SHT30;54349;52.528;19.760;2023-07-13T03:02:36;18.23;58.33
67502;SHT30;54349;52.528;19.760;2023-07-13T03:05:07;18.04;58.50
67502;SHT30;54349;52.528;19.760;2023-07-13T03:07:38;17.87;58.66
67502;SHT30;54349;52.528;19.760;2023-07-13T03:10:09;17.73;58.75
67502;SHT30;54349;52.528;19.760;2023-07-13T03:12:44;17.77;59.65
67502;SHT30;54349;52.528;19.760;2023-07-13T03:15:20;18.39;59.16
67502;SHT30;54349;52.528;19.760;2023-07-13T03:17:49;19.01;58.09
67502;SHT30;54349;52.528;19.760;2023-07-13T03:20:17;19.51;57.25
67502;SHT30;54349;52.528;19.760;2023-07-13T03:22:46;19.93;56.54
67502;SHT30;54349;52.528;19.760;2023-07-13T03:25:16;20.13;57.01
67502;SHT30;54349;52.528;19.760;2023-07-13T03:27:44;19.72;57.90
67502;SHT30;54349;52.528;19.760;2023-07-13T03:30:12;19.27;58.72
67502;SHT30;54349;52.528;19.760;2023-07-13T03:32:42;18.96;58.81
67502;SHT30;54349;52.528;19.760;2023-07-13T03:35:12;18.66;58.18
67502;SHT30;54349;52.528;19.760;2023-07-13T03:37:40;18.34;58.56
67502;SHT30;54349;52.528;19.760;2023-07-13T03:40:14;18.10;58.75
67502;SHT30;54349;52.528;19.760;2023-07-13T03:42:44;17.91;58.83
67502;SHT30;54349;52.528;19.760;2023-07-13T03:45:14;17.77;59.16
67502;SHT30;54349;52.528;19.760;2023-07-13T03:47:43;18.07;59.87
67502;SHT30;54349;52.528;19.760;2023-07-13T03:50:13;18.71;58.94
67502;SHT30;54349;52.528;19.760;2023-07-13T03:52:41;19.26;57.96
67502;SHT30;54349;52.528;19.760;2023-07-13T03:55:11;19.72;57.14
67502;SHT30;54349;52.528;19.760;2023-07-13T03:57:42;20.08;56.49
67502;SHT30;54349;52.528;19.760;2023-07-13T04:00:11;20.33;56.46
67502;SHT30;54349;52.528;19.760;2023-07-13T04:02:43;19.90;56.37
67502;SHT30;54349;52.528;19.760;2023-07-13T04:05:12;19.33;57.39
67502;SHT30;54349;52.528;19.760;2023-07-13T04:07:40;18.92;57.72
67502;SHT30;54349;52.528;19.760;2023-07-13T04:10:09;18.57;58.16
67502;SHT30;54349;52.528;19.760;2023-07-13T04:12:38;18.27;58.57
67502;SHT30;54349;52.528;19.760;2023-07-13T04:15:06;18.07;58.77
67502;SHT30;54349;52.528;19.760;2023-07-13T04:17:36;18.14;59.75
67502;SHT30;54349;52.528;19.760;2023-07-13T04:20:05;18.73;59.11
67502;SHT30;54349;52.528;19.760;2023-07-13T04:22:34;19.28;58.12
67502;SHT30;54349;52.528;19.760;2023-07-13T04:25:02;19.72;57.28
67502;SHT30;54349;52.528;19.760;2023-07-13T04:27:32;20.10;56.58
67502;SHT30;54349;52.528;19.760;2023-07-13T04:30:01;20.28;56.92
67502;SHT30;54349;52.528;19.760;2023-07-13T04:32:30;19.80;56.75
67502;SHT30;54349;52.528;19.760;2023-07-13T04:34:58;19.26;57.67
67502;SHT30;54349;52.528;19.760;2023-07-13T04:37:27;18.86;57.81
67502;SHT30;54349;52.528;19.760;2023-07-13T04:39:57;18.52;58.42
67502;SHT30;54349;52.528;19.760;2023-07-13T04:42:26;18.25;58.86
67502;SHT30;54349;52.528;19.760;2023-07-13T04:44:55;18.05;59.07
67502;SHT30;54349;52.528;19.760;2023-07-13T04:47:23;17.95;59.79
67502;SHT30;54349;52.528;19.760;2023-07-13T04:49:52;18.36;59.94
67502;SHT30;54349;52.528;19.760;2023-07-13T04:52:20;18.95;58.98
67502;SHT30;54349;52.528;19.760;2023-07-13T04:54:49;19.46;58.00
67502;SHT30;54349;52.528;19.760;2023-07-13T04:57:17;19.89;57.19
67502;SHT30;54349;52.528;19.760;2023-07-13T04:59:45;20.24;56.84
67502;SHT30;54349;52.528;19.760;2023-07-13T05:02:14;20.18;58.44
67502;SHT30;54349;52.528;19.760;2023-07-13T05:04:42;19.69;59.16
67502;SHT30;54349;52.528;19.760;2023-07-13T05:07:15;19.33;60.00
67502;SHT30;54349;52.528;19.760;2023-07-13T05:09:43;19.05;59.57
67502;SHT30;54349;52.528;19.760;2023-07-13T05:12:12;18.77;59.13
67502;SHT30;54349;52.528;19.760;2023-07-13T05:14:40;18.49;59.33
67502;SHT30;54349;52.528;19.760;2023-07-13T05:17:09;18.25;59.50
67502;SHT30;54349;52.528;19.760;2023-07-13T05:19:42;18.06;59.62
67502;SHT30;54349;52.528;19.760;2023-07-13T05:22:10;18.07;60.33
67502;SHT30;54349;52.528;19.760;2023-07-13T05:24:39;18.59;59.95
67502;SHT30;54349;52.528;19.760;2023-07-13T05:27:09;19.17;58.95
67502;SHT30;54349;52.528;19.760;2023-07-13T05:29:37;19.64;58.09
67502;SHT30;54349;52.528;19.760;2023-07-13T05:32:06;20.04;57.39
67502;SHT30;54349;52.528;19.760;2023-07-13T05:34:35;20.24;58.93
67502;SHT30;54349;52.528;19.760;2023-07-13T05:37:03;19.88;59.83
67502;SHT30;54349;52.528;19.760;2023-07-13T05:39:35;19.48;60.47
67502;SHT30;54349;52.528;19.760;2023-07-13T05:42:03;19.19;60.39
67502;SHT30;54349;52.528;19.760;2023-07-13T05:44:33;18.91;59.64
67502;SHT30;54349;52.528;19.760;2023-07-13T05:47:01;18.64;59.86
67502;SHT30;54349;52.528;19.760;2023-07-13T05:49:31;18.39;60.01
67502;SHT30;54349;52.528;19.760;2023-07-13T05:51:59;18.18;60.09
67502;SHT30;54349;52.528;19.760;2023-07-13T05:54:28;18.00;60.23
67502;SHT30;54349;52.528;19.760;2023-07-13T05:56:58;18.08;61.17
67502;SHT30;54349;52.528;19.760;2023-07-13T05:59:26;18.66;60.45
67502;SHT30;54349;52.528;19.760;2023-07-13T06:01:55;19.21;59.39
67502;SHT30;54349;52.528;19.760;2023-07-13T06:04:24;19.67;58.52
67502;SHT30;54349;52.528;19.760;2023-07-13T06:06:52;20.06;58.04
67502;SHT30;54349;52.528;19.760;2023-07-13T06:09:21;20.27;61.39
67502;SHT30;54349;52.528;19.760;2023-07-13T06:11:49;20.05;64.94
67502;SHT30;54349;52.528;19.760;2023-07-13T06:14:18;19.90;67.35
67502;SHT30;54349;52.528;19.760;2023-07-13T06:16:46;19.77;65.83
67502;SHT30;54349;52.528;19.760;2023-07-13T06:19:14;19.58;65.66
67502;SHT30;54349;52.528;19.760;2023-07-13T06:21:43;19.42;66.63
67502;SHT30;54349;52.528;19.760;2023-07-13T06:24:11;19.35;67.61
67502;SHT30;54349;52.528;19.760;2023-07-13T06:26:40;19.34;67.78
67502;SHT30;54349;52.528;19.760;2023-07-13T06:29:08;19.34;67.85
67502;SHT30;54349;52.528;19.760;2023-07-13T06:31:37;19.35;68.00
67502;SHT30;54349;52.528;19.760;2023-07-13T06:34:05;19.36;68.14
67502;SHT30;54349;52.528;19.760;2023-07-13T06:36:34;19.33;68.27
67502;SHT30;54349;52.528;19.760;2023-07-13T06:39:04;19.34;68.46
67502;SHT30;54349;52.528;19.760;2023-07-13T06:41:35;19.38;68.61
67502;SHT30;54349;52.528;19.760;2023-07-13T06:44:03;19.41;68.57
67502;SHT30;54349;52.528;19.760;2023-07-13T06:46:32;19.42;68.52
67502;SHT30;54349;52.528;19.760;2023-07-13T06:49:01;19.40;68.47
67502;SHT30;54349;52.528;19.760;2023-07-13T06:51:30;19.41;68.43
67502;SHT30;54349;52.528;19.760;2023-07-13T06:53:58;19.40;68.37
67502;SHT30;54349;52.528;19.760;2023-07-13T06:56:26;19.42;68.41
67502;SHT30;54349;52.528;19.760;2023-07-13T06:58:54;19.41;68.33
67502;SHT30;54349;52.528;19.760;2023-07-13T07:01:23;19.42;68.38
67502;SHT30;54349;52.528;19.760;2023-07-13T07:03:52;19.42;68.29
67502;SHT30;54349;52.528;19.760;2023-07-13T07:06:21;19.39;68.32
67502;SHT30;54349;52.528;19.760;2023-07-13T07:08:52;19.42;68.30
67502;SHT30;54349;52.528;19.760;2023-07-13T07:11:22;19.43;68.22
67502;SHT30;54349;52.528;19.760;2023-07-13T07:13:54;19.44;68.16
67502;SHT30;54349;52.528;19.760;2023-07-13T07:16:23;19.43;68.14
67502;SHT30;54349;52.528;19.760;2023-07-13T07:18:54;19.42;68.09
67502;SHT30;54349;52.528;19.760;2023-07-13T07:21:22;19.42;68.08
67502;SHT30;54349;52.528;19.760;2023-07-13T07:23:51;19.42;68.19
67502;SHT30;54349;52.528;19.760;2023-07-13T07:26:21;19.43;68.35
67502;SHT30;54349;52.528;19.760;2023-07-13T07:28:54;19.43;68.37
67502;SHT30;54349;52.528;19.760;2023-07-13T07:31:26;19.43;68.34
67502;SHT30;54349;52.528;19.760;2023-07-13T07:33:59;19.42;68.43
67502;SHT30;54349;52.528;19.760;2023-07-13T07:36:28;19.43;68.34
67502;SHT30;54349;52.528;19.760;2023-07-13T07:39:00;19.44;68.44
67502;SHT30;54349;52.528;19.760;2023-07-13T07:41:29;19.43;68.77
67502;SHT30;54349;52.528;19.760;2023-07-13T07:44:02;19.45;68.86
67502;SHT30;54349;52.528;19.760;2023-07-13T07:46:36;19.46;68.87
67502;SHT30;54349;52.528;19.760;2023-07-13T07:49:06;19.50;68.62
67502;SHT30;54349;52.528;19.760;2023-07-13T07:51:35;19.51;68.55
67502;SHT30;54349;52.528;19.760;2023-07-13T07:54:03;19.52;68.32
67502;SHT30;54349;52.528;19.760;2023-07-13T07:56:34;19.53;68.28
67502;SHT30;54349;52.528;19.760;2023-07-13T07:59:06;19.52;68.00
67502;SHT30;54349;52.528;19.760;2023-07-13T08:01:38;19.51;68.02
67502;SHT30;54349;52.528;19.760;2023-07-13T08:04:10;19.51;67.39
67502;SHT30;54349;52.528;19.760;2023-07-13T08:07:00;19.45;66.21
67502;SHT30;54349;52.528;19.760;2023-07-13T08:09:31;19.38;65.51
67502;SHT30;54349;52.528;19.760;2023-07-13T08:12:00;19.31;64.94
67502;SHT30;54349;52.528;19.760;2023-07-13T08:14:32;19.23;64.62
67502;SHT30;54349;52.528;19.760;2023-07-13T08:17:19;19.18;64.36
67502;SHT30;54349;52.528;19.760;2023-07-13T08:19:49;19.15;64.21
67502;SHT30;54349;52.528;19.760;2023-07-13T08:22:20;19.10;63.96
67502;SHT30;54349;52.528;19.760;2023-07-13T08:24:50;19.04;63.70
67502;SHT30;54349;52.528;19.760;2023-07-13T08:27:25;18.99;63.50
67502;SHT30;54349;52.528;19.760;2023-07-13T08:29:56;18.94;63.26
67502;SHT30;54349;52.528;19.760;2023-07-13T08:32:26;18.92;63.31
67502;SHT30;54349;52.528;19.760;2023-07-13T08:34:56;18.88;63.22
67502;SHT30;54349;52.528;19.760;2023-07-13T08:37:26;18.84;63.01
67502;SHT30;54349;52.528;19.760;2023-07-13T08:39:55;18.82;62.81
67502;SHT30;54349;52.528;19.760;2023-07-13T08:42:39;18.81;62.69
67502;SHT30;54349;52.528;19.760;2023-07-13T08:51:24;18.73;62.46
67502;SHT30;54349;52.528;19.760;2023-07-13T08:53:59;18.70;62.52
67502;SHT30;54349;52.528;19.760;2023-07-13T08:56:33;18.69;62.64
67502;SHT30;54349;52.528;19.760;2023-07-13T08:59:09;18.70;62.70
67502;SHT30;54349;52.528;19.760;2023-07-13T09:04:54;18.68;62.43
67502;SHT30;54349;52.528;19.760;2023-07-13T09:10:46;18.66;62.23
67502;SHT30;54349;52.528;19.760;2023-07-13T09:16:30;18.68;62.21
67502;SHT30;54349;52.528;19.760;2023-07-13T09:19:04;18.69;62.18
67502;SHT30;54349;52.528;19.760;2023-07-13T09:21:41;18.69;62.18
67502;SHT30;54349;52.528;19.760;2023-07-13T09:24:29;18.69;62.03
67502;SHT30;54349;52.528;19.760;2023-07-13T09:27:27;18.69;62.03
67502;SHT30;54349;52.528;19.760;2023-07-13T09:32:47;18.71;62.23
67502;SHT30;54349;52.528;19.760;2023-07-13T09:35:22;18.72;62.00
67502;SHT30;54349;52.528;19.760;2023-07-13T09:37:58;18.73;61.75
67502;SHT30;54349;52.528;19.760;2023-07-13T09:40:53;18.73;61.69
67502;SHT30;54349;52.528;19.760;2023-07-13T09:46:43;18.70;61.58
67502;SHT30;54349;52.528;19.760;2023-07-13T09:49:25;18.69;61.52
67502;SHT30;54349;52.528;19.760;2023-07-13T09:51:59;18.67;61.49
67502;SHT30;54349;52.528;19.760;2023-07-13T09:54:33;18.66;61.50
67502;SHT30;54349;52.528;19.760;2023-07-13T09:57:11;18.66;61.54
67502;SHT30;54349;52.528;19.760;2023-07-13T09:59:46;18.64;61.55
67502;SHT30;54349;52.528;19.760;2023-07-13T10:05:01;18.64;61.67
67502;SHT30;54349;52.528;19.760;2023-07-13T10:07:44;18.66;61.88
67502;SHT30;54349;52.528;19.760;2023-07-13T10:10:17;18.67;61.86
67502;SHT30;54349;52.528;19.760;2023-07-13T10:12:50;18.69;62.00
67502;SHT30;54349;52.528;19.760;2023-07-13T10:15:21;18.70;61.95
67502;SHT30;54349;52.528;19.760;2023-07-13T10:17:54;18.72;61.92
67502;SHT30;54349;52.528;19.760;2023-07-13T10:20:26;18.73;62.03
67502;SHT30;54349;52.528;19.760;2023-07-13T10:23:05;18.71;61.89
67502;SHT30;54349;52.528;19.760;2023-07-13T10:25:48;18.72;61.90
67502;SHT30;54349;52.528;19.760;2023-07-13T10:28:29;18.71;61.97
67502;SHT30;54349;52.528;19.760;2023-07-13T10:31:04;18.71;62.02
67502;SHT30;54349;52.528;19.760;2023-07-13T10:33:42;18.72;61.86
67502;SHT30;54349;52.528;19.760;2023-07-13T10:36:15;18.72;61.97
67502;SHT30;54349;52.528;19.760;2023-07-13T10:38:49;18.73;62.05
67502;SHT30;54349;52.528;19.760;2023-07-13T10:41:21;18.75;61.98
67502;SHT30;54349;52.528;19.760;2023-07-13T10:43:56;18.77;61.90
67502;SHT30;54349;52.528;19.760;2023-07-13T10:46:27;18.81;61.89
67502;SHT30;54349;52.528;19.760;2023-07-13T10:49:01;18.83;61.91
67502;SHT30;54349;52.528;19.760;2023-07-13T10:51:34;18.83;61.86
67502;SHT30;54349;52.528;19.760;2023-07-13T10:56:52;18.83;61.87
67502;SHT30;54349;52.528;19.760;2023-07-13T10:59:49;18.83;61.88
67502;SHT30;54349;52.528;19.760;2023-07-13T11:02:43;18.85;61.80
67502;SHT30;54349;52.528;19.760;2023-07-13T11:05:30;18.86;61.70
67502;SHT30;54349;52.528;19.760;2023-07-13T11:11:00;18.85;61.81
67502;SHT30;54349;52.528;19.760;2023-07-13T11:36:20;18.73;62.58
67502;SHT30;54349;52.528;19.760;2023-07-13T11:39:03;18.76;62.56
67502;SHT30;54349;52.528;19.760;2023-07-13T11:41:49;18.78;62.50
67502;SHT30;54349;52.528;19.760;2023-07-13T11:44:24;18.78;62.07
67502;SHT30;54349;52.528;19.760;2023-07-13T11:46:56;18.73;61.66
67502;SHT30;54349;52.528;19.760;2023-07-13T11:49:32;18.70;61.25
67502;SHT30;54349;52.528;19.760;2023-07-13T11:52:16;18.65;61.04
67502;SHT30;54349;52.528;19.760;2023-07-13T11:54:50;18.61;60.85
67502;SHT30;54349;52.528;19.760;2023-07-13T11:57:26;18.55;60.71
67502;SHT30;54349;52.528;19.760;2023-07-13T12:00:02;18.52;60.53
67502;SHT30;54349;52.528;19.760;2023-07-13T12:02:51;18.48;60.49
67502;SHT30;54349;52.528;19.760;2023-07-13T12:05:23;18.46;60.91
67502;SHT30;54349;52.528;19.760;2023-07-13T12:07:52;18.47;61.11
67502;SHT30;54349;52.528;19.760;2023-07-13T12:10:27;18.50;61.06
67502;SHT30;54349;52.528;19.760;2023-07-13T12:13:01;18.52;60.99
67502;SHT30;54349;52.528;19.760;2023-07-13T12:15:41;18.54;60.99
67502;SHT30;54349;52.528;19.760;2023-07-13T12:18:15;18.53;61.09
67502;SHT30;54349;52.528;19.760;2023-07-13T12:20:50;18.51;60.99
67502;SHT30;54349;52.528;19.760;2023-07-13T12:25:59;18.52;61.04
67502;SHT30;54349;52.528;19.760;2023-07-13T12:28:33;18.49;61.03
67502;SHT30;54349;52.528;19.760;2023-07-13T12:34:28;18.48;61.00
67502;SHT30;54349;52.528;19.760;2023-07-13T12:36:55;18.47;60.94
67502;SHT30;54349;52.528;19.760;2023-07-13T12:39:36;18.47;60.83
67502;SHT30;54349;52.528;19.760;2023-07-13T12:47:47;18.44;60.68
67502;SHT30;54349;52.528;19.760;2023-07-13T12:50:22;18.45;60.57
67502;SHT30;54349;52.528;19.760;2023-07-13T12:52:59;18.44;60.57
67502;SHT30;54349;52.528;19.760;2023-07-13T12:55:46;18.44;60.44
67502;SHT30;54349;52.528;19.760;2023-07-13T12:58:30;18.43;60.37
67502;SHT30;54349;52.528;19.760;2023-07-13T13:01:13;18.43;60.39
67502;SHT30;54349;52.528;19.760;2023-07-13T13:03:52;18.40;60.37
67502;SHT30;54349;52.528;19.760;2023-07-13T13:08:58;18.37;60.38
67502;SHT30;54349;52.528;19.760;2023-07-13T13:11:30;18.36;60.37
67502;SHT30;54349;52.528;19.760;2023-07-13T13:14:01;18.34;60.38
67502;SHT30;54349;52.528;19.760;2023-07-13T13:16:30;18.34;60.55
67502;SHT30;54349;52.528;19.760;2023-07-13T13:19:21;18.36;60.48
67502;SHT30;54349;52.528;19.760;2023-07-13T13:21:54;18.36;60.34
67502;SHT30;54349;52.528;19.760;2023-07-13T13:24:26;18.33;60.30
67502;SHT30;54349;52.528;19.760;2023-07-13T13:26:56;18.33;60.35
67502;SHT30;54349;52.528;19.760;2023-07-13T13:29:25;18.33;60.38
67502;SHT30;54349;52.528;19.760;2023-07-13T13:31:54;18.33;60.32
67502;SHT30;54349;52.528;19.760;2023-07-13T13:34:24;18.31;60.49
67502;SHT30;54349;52.528;19.760;2023-07-13T13:36:54;18.31;60.49
67502;SHT30;54349;52.528;19.760;2023-07-13T13:39:36;18.31;60.45
67502;SHT30;54349;52.528;19.760;2023-07-13T13:42:08;18.30;60.37
67502;SHT30;54349;52.528;19.760;2023-07-13T13:44:38;18.31;60.38
67502;SHT30;54349;52.528;19.760;2023-07-13T13:47:25;18.33;60.40
67502;SHT30;54349;52.528;19.760;2023-07-13T13:50:10;18.37;60.25
67502;SHT30;54349;52.528;19.760;2023-07-13T13:52:43;18.42;60.23
67502;SHT30;54349;52.528;19.760;2023-07-13T13:55:12;18.46;60.18
67502;SHT30;54349;52.528;19.760;2023-07-13T13:57:50;18.52;60.00
67502;SHT30;54349;52.528;19.760;2023-07-13T14:00:20;18.53;58.45
67502;SHT30;54349;52.528;19.760;2023-07-13T14:02:48;18.43;58.00
67502;SHT30;54349;52.528;19.760;2023-07-13T14:05:23;18.34;57.91
67502;SHT30;54349;52.528;19.760;2023-07-13T14:07:54;18.29;57.82
67502;SHT30;54349;52.528;19.760;2023-07-13T14:10:24;18.27;57.71
67502;SHT30;54349;52.528;19.760;2023-07-13T14:12:54;18.24;57.62
67502;SHT30;54349;52.528;19.760;2023-07-13T14:15:28;18.23;57.58
67502;SHT30;54349;52.528;19.760;2023-07-13T14:18:00;18.21;57.53
67502;SHT30;54349;52.528;19.760;2023-07-13T14:20:29;18.18;57.45
67502;SHT30;54349;52.528;19.760;2023-07-13T14:22:58;18.14;58.70
67502;SHT30;54349;52.528;19.760;2023-07-13T14:25:28;18.19;59.54
67502;SHT30;54349;52.528;19.760;2023-07-13T14:27:58;18.26;59.74
67502;SHT30;54349;52.528;19.760;2023-07-13T14:30:48;18.32;59.83
67502;SHT30;54349;52.528;19.760;2023-07-13T14:33:18;18.33;59.60
67502;SHT30;54349;52.528;19.760;2023-07-13T14:35:48;18.32;59.34
67502;SHT30;54349;52.528;19.760;2023-07-13T14:38:20;18.31;59.18
67502;SHT30;54349;52.528;19.760;2023-07-13T14:40:49;18.27;59.19
67502;SHT30;54349;52.528;19.760;2023-07-13T14:43:18;18.24;59.10
67502;SHT30;54349;52.528;19.760;2023-07-13T14:45:47;18.22;59.05
67502;SHT30;54349;52.528;19.760;2023-07-13T14:48:20;18.19;59.00
67502;SHT30;54349;52.528;19.760;2023-07-13T14:50:53;18.14;59.00
67502;SHT30;54349;52.528;19.760;2023-07-13T14:53:25;18.12;59.00
67502;SHT30;54349;52.528;19.760;2023-07-13T14:55:58;18.10;59.05
67502;SHT30;54349;52.528;19.760;2023-07-13T14:58:26;18.07;59.11
67502;SHT30;54349;52.528;19.760;2023-07-13T15:01:00;18.05;59.14
67502;SHT30;54349;52.528;19.760;2023-07-13T15:03:29;18.02;59.21
67502;SHT30;54349;52.528;19.760;2023-07-13T15:05:58;18.01;59.20
67502;SHT30;54349;52.528;19.760;2023-07-13T15:08:26;17.99;59.23
67502;SHT30;54349;52.528;19.760;2023-07-13T15:10:55;17.98;59.29
67502;SHT30;54349;52.528;19.760;2023-07-13T15:13:28;17.97;59.36
67502;SHT30;54349;52.528;19.760;2023-07-13T15:15:57;17.95;59.34
67502;SHT30;54349;52.528;19.760;2023-07-13T15:18:26;17.96;59.39
67502;SHT30;54349;52.528;19.760;2023-07-13T15:20:55;17.95;59.32
67502;SHT30;54349;52.528;19.760;2023-07-13T15:23:26;17.94;59.39
67502;SHT30;54349;52.528;19.760;2023-07-13T15:25:55;17.94;59.51
67502;SHT30;54349;52.528;19.760;2023-07-13T15:28:23;17.93;59.47
67502;SHT30;54349;52.528;19.760;2023-07-13T15:30:51;17.92;59.43
67502;SHT30;54349;52.528;19.760;2023-07-13T15:33:25;17.92;59.43
67502;SHT30;54349;52.528;19.760;2023-07-13T15:35:56;17.90;59.76
67502;SHT30;54349;52.528;19.760;2023-07-13T15:38:30;17.91;59.71
67502;SHT30;54349;52.528;19.760;2023-07-13T15:40:59;17.91;59.66
67502;SHT30;54349;52.528;19.760;2023-07-13T15:43:28;17.89;59.58
67502;SHT30;54349;52.528;19.760;2023-07-13T15:46:02;17.86;59.61
67502;SHT30;54349;52.528;19.760;2023-07-13T15:48:30;17.84;59.58
67502;SHT30;54349;52.528;19.760;2023-07-13T15:51:03;17.83;59.68
67502;SHT30;54349;52.528;19.760;2023-07-13T15:53:39;17.82;59.72
67502;SHT30;54349;52.528;19.760;2023-07-13T15:56:16;17.81;59.74
67502;SHT30;54349;52.528;19.760;2023-07-13T15:58:53;17.80;59.76
67502;SHT30;54349;52.528;19.760;2023-07-13T16:01:24;17.78;59.79
67502;SHT30;54349;52.528;19.760;2023-07-13T16:03:54;17.77;59.76
67502;SHT30;54349;52.528;19.760;2023-07-13T16:06:28;17.75;59.75
67502;SHT30;54349;52.528;19.760;2023-07-13T16:09:21;17.73;59.72
67502;SHT30;54349;52.528;19.760;2023-07-13T16:11:51;17.72;61.05
67502;SHT30;54349;52.528;19.760;2023-07-13T16:14:23;17.86;64.88
67502;SHT30;54349;52.528;19.760;2023-07-13T16:16:53;18.03;66.91
67502;SHT30;54349;52.528;19.760;2023-07-13T16:19:24;18.22;68.65
67502;SHT30;54349;52.528;19.760;2023-07-13T16:21:57;18.42;68.72
67502;SHT30;54349;52.528;19.760;2023-07-13T16:24:28;18.58;68.31
67502;SHT30;54349;52.528;19.760;2023-07-13T16:26:59;18.63;67.29
67502;SHT30;54349;52.528;19.760;2023-07-13T16:29:32;18.59;66.79
67502;SHT30;54349;52.528;19.760;2023-07-13T16:32:11;18.54;66.12
67502;SHT30;54349;52.528;19.760;2023-07-13T16:34:42;18.46;65.13
67502;SHT30;54349;52.528;19.760;2023-07-13T16:37:13;18.38;64.28
67502;SHT30;54349;52.528;19.760;2023-07-13T16:39:50;18.31;63.61
67502;SHT30;54349;52.528;19.760;2023-07-13T16:42:26;18.23;63.13
67502;SHT30;54349;52.528;19.760;2023-07-13T16:44:55;18.16;62.72
67502;SHT30;54349;52.528;19.760;2023-07-13T16:47:24;18.10;62.48
67502;SHT30;54349;52.528;19.760;2023-07-13T16:49:53;18.05;62.20
67502;SHT30;54349;52.528;19.760;2023-07-13T16:52:25;17.99;61.93